sensor_id;sensor_type;location;lat;lon;timestamp;temperature;humidity
10883;DHT22;5494;51.796;10.952;2023-03-14T00:00:28;11.20;99.90
10883;DHT22;5494;51.796;10.952;2023-03-14T00:02:56;11.30;99.90
10883;DHT22;5494;51.796;10.952;2023-03-14T00:05:24;11.30;99.90
10883;DHT22;5494;51.796;10.952;2023-03-14T00:07:52;11.30;99.90
10883;DHT22;5494;51.796;10.952;2023-03-14T00:10:20;11.30;99.90
10883;DHT22;5494;51.796;10.952;2023-03-14T00:12:48;11.30;99.90
10883;DHT22;5494;51.796;10.952;2023-03-14T00:15:16;11.30;99.90
10883;DHT22;5494;51.796;10.952;2023-03-14T00:17:45;11.20;99.90
10883;DHT22;5494;51.796;10.952;2023-03-14T00:20:13;11.20;99.90
10883;DHT22;5494;51.796;10.952;2023-03-14T00:22:41;11.30;99.90
10883;DHT22;5494;51.796;10.952;2023-03-14T00:25:11;11.20;99.90
10883;DHT22;5494;51.796;10.952;2023-03-14T00:27:39;11.20;99.90
10883;DHT22;5494;51.796;10.952;2023-03-14T00:30:08;11.10;99.90
10883;DHT22;5494;51.796;10.952;2023-03-14T00:32:37;11.10;99.90
10883;DHT22;5494;51.796;10.952;2023-03-14T00:35:07;11.10;99.90
10883;DHT22;5494;51.796;10.952;2023-03-14T00:37:35;11.00;99.90
10883;DHT22;5494;51.796;10.952;2023-03-14T00:40:06;10.90;99.90
10883;DHT22;5494;51.796;10.952;2023-03-14T00:42:35;10.80;99.90
10883;DHT22;5494;51.796;10.952;2023-03-14T00:45:03;10.90;99.90
10883;DHT22;5494;51.796;10.952;2023-03-14T00:47:34;10.90;99.90
10883;DHT22;5494;51.796;10.952;2023-03-14T00:50:02;10.90;99.90
10883;DHT22;5494;51.796;10.952;2023-03-14T00:52:32;10.90;99.90
10883;DHT22;5494;51.796;10.952;2023-03-14T00:54:59;10.90;99.90
10883;DHT22;5494;51.796;10.952;2023-03-14T00:57:27;10.90;99.90
10883;DHT22;5494;51.796;10.952;2023-03-14T00:59:55;10.80;99.90
10883;DHT22;5494;51.796;10.952;2023-03-14T01:02:23;10.80;99.90
10883;DHT22;5494;51.796;10.952;2023-03-14T01:04:51;10.80;99.90
10883;DHT22;5494;51.796;10.952;2023-03-14T01:07:21;10.80;99.90
10883;DHT22;5494;51.796;10.952;2023-03-14T01:09:52;10.80;99.90
10883;DHT22;5494;51.796;10.952;2023-03-14T01:12:20;10.80;99.90
10883;DHT22;5494;51.796;10.952;2023-03-14T01:14:48;10.90;99.90
10883;DHT22;5494;51.796;10.952;2023-03-14T01:17:16;10.90;99.90
10883;DHT22;5494;51.796;10.952;2023-03-14T01:19:44;11.00;99.90
10883;DHT22;5494;51.796;10.952;2023-03-14T01:22:12;11.00;99.90
10883;DHT22;5494;51.796;10.952;2023-03-14T01:24:40;10.90;99.90
10883;DHT22;5494;51.796;10.952;2023-03-14T01:27:09;10.90;99.90
10883;DHT22;5494;51.796;10.952;2023-03-14T01:29:38;10.90;99.90
10883;DHT22;5494;51.796;10.952;2023-03-14T01:32:06;10.90;99.90
10883;DHT22;5494;51.796;10.952;2023-03-14T01:34:34;10.90;99.90
10883;DHT22;5494;51.796;10.952;2023-03-14T01:37:02;10.90;99.90
10883;DHT22;5494;51.796;10.952;2023-03-14T01:39:30;10.90;99.90
10883;DHT22;5494;51.796;10.952;2023-03-14T01:41:59;10.90;99.90
10883;DHT22;5494;51.796;10.952;2023-03-14T01:44:46;10.80;99.90
10883;DHT22;5494;51.796;10.952;2023-03-14T01:47:15;10.80;99.90
10883;DHT22;5494;51.796;10.952;2023-03-14T01:49:45;10.80;99.90
10883;DHT22;5494;51.796;10.952;2023-03-14T01:52:18;10.70;99.90
10883;DHT22;5494;51.796;10.952;2023-03-14T01:54:51;10.70;99.90
10883;DHT22;5494;51.796;10.952;2023-03-14T01:57:24;10.70;99.90
10883;DHT22;5494;51.796;10.952;2023-03-14T02:00:00;10.80;99.90
10883;DHT22;5494;51.796;10.952;2023-03-14T02:02:42;10.80;99.90
10883;DHT22;5494;51.796;10.952;2023-03-14T02:05:19;10.80;99.90
10883;DHT22;5494;51.796;10.952;2023-03-14T02:07:56;10.80;99.90
10883;DHT22;5494;51.796;10.952;2023-03-14T02:10:33;10.70;99.90
10883;DHT22;5494;51.796;10.952;2023-03-14T02:13:05;10.80;99.90
10883;DHT22;5494;51.796;10.952;2023-03-14T02:15:54;10.90;99.90
10883;DHT22;5494;51.796;10.952;2023-03-14T02:18:40;11.00;99.90
10883;DHT22;5494;51.796;10.952;2023-03-14T02:21:46;11.00;99.90
10883;DHT22;5494;51.796;10.952;2023-03-14T02:24:29;10.90;99.90
10883;DHT22;5494;51.796;10.952;2023-03-14T02:27:10;10.90;99.90
10883;DHT22;5494;51.796;10.952;2023-03-14T02:29:49;10.90;99.90
10883;DHT22;5494;51.796;10.952;2023-03-14T02:32:22;10.80;99.90
10883;DHT22;5494;51.796;10.952;2023-03-14T02:34:55;10.70;99.90
10883;DHT22;5494;51.796;10.952;2023-03-14T02:37:30;10.60;99.90
10883;DHT22;5494;51.796;10.952;2023-03-14T02:40:05;10.60;99.90
10883;DHT22;5494;51.796;10.952;2023-03-14T02:42:36;10.60;99.90
10883;DHT22;5494;51.796;10.952;2023-03-14T02:48:14;10.40;99.90
10883;DHT22;5494;51.796;10.952;2023-03-14T02:50:47;10.40;99.90
10883;DHT22;5494;51.796;10.952;2023-03-14T02:53:19;10.40;99.90
10883;DHT22;5494;51.796;10.952;2023-03-14T02:55:51;10.40;99.90
10883;DHT22;5494;51.796;10.952;2023-03-14T02:58:23;10.40;99.90
10883;DHT22;5494;51.796;10.952;2023-03-14T03:00:57;10.50;99.90
10883;DHT22;5494;51.796;10.952;2023-03-14T03:03:25;10.50;99.90
10883;DHT22;5494;51.796;10.952;2023-03-14T03:05:55;10.50;99.90
10883;DHT22;5494;51.796;10.952;2023-03-14T03:08:26;10.50;99.90
10883;DHT22;5494;51.796;10.952;2023-03-14T03:10:57;10.50;99.90
10883;DHT22;5494;51.796;10.952;2023-03-14T03:13:29;10.40;99.90
10883;DHT22;5494;51.796;10.952;2023-03-14T03:16:00;10.30;99.90
10883;DHT22;5494;51.796;10.952;2023-03-14T03:18:28;10.30;99.90
10883;DHT22;5494;51.796;10.952;2023-03-14T03:21:00;10.40;99.90
10883;DHT22;5494;51.796;10.952;2023-03-14T03:23:28;10.40;99.90
10883;DHT22;5494;51.796;10.952;2023-03-14T03:25:57;10.30;99.90
10883;DHT22;5494;51.796;10.952;2023-03-14T03:28:27;10.20;99.90
10883;DHT22;5494;51.796;10.952;2023-03-14T03:30:58;10.30;99.90
10883;DHT22;5494;51.796;10.952;2023-03-14T03:33:26;10.30;99.90
10883;DHT22;5494;51.796;10.952;2023-03-14T03:35:53;10.30;99.90
10883;DHT22;5494;51.796;10.952;2023-03-14T03:38:28;10.30;99.90
10883;DHT22;5494;51.796;10.952;2023-03-14T03:40:58;10.30;99.90
10883;DHT22;5494;51.796;10.952;2023-03-14T03:43:27;10.30;99.90
10883;DHT22;5494;51.796;10.952;2023-03-14T03:45:57;10.30;99.90
10883;DHT22;5494;51.796;10.952;2023-03-14T03:48:25;10.30;99.90
10883;DHT22;5494;51.796;10.952;2023-03-14T03:50:54;10.20;99.90
10883;DHT22;5494;51.796;10.952;2023-03-14T03:53:22;10.30;99.90
10883;DHT22;5494;51.796;10.952;2023-03-14T03:56:01;10.30;99.90
10883;DHT22;5494;51.796;10.952;2023-03-14T03:58:30;10.20;99.90
10883;DHT22;5494;51.796;10.952;2023-03-14T04:00:59;10.20;99.90
10883;DHT22;5494;51.796;10.952;2023-03-14T04:03:28;10.20;99.90
10883;DHT22;5494;51.796;10.952;2023-03-14T04:06:00;10.30;99.90
10883;DHT22;5494;51.796;10.952;2023-03-14T04:08:32;10.30;99.90
10883;DHT22;5494;51.796;10.952;2023-03-14T04:11:01;10.30;99.90
10883;DHT22;5494;51.796;10.952;2023-03-14T04:13:51;10.30;99.90
10883;DHT22;5494;51.796;10.952;2023-03-14T04:16:22;10.30;99.90
10883;DHT22;5494;51.796;10.952;2023-03-14T04:18:59;10.40;99.90
10883;DHT22;5494;51.796;10.952;2023-03-14T04:21:27;10.40;99.90
10883;DHT22;5494;51.796;10.952;2023-03-14T04:23:56;10.40;99.90
10883;DHT22;5494;51.796;10.952;2023-03-14T04:26:28;10.30;99.90
10883;DHT22;5494;51.796;10.952;2023-03-14T04:28:56;10.30;99.90
10883;DHT22;5494;51.796;10.952;2023-03-14T04:31:26;10.30;99.90
10883;DHT22;5494;51.796;10.952;2023-03-14T04:33:54;10.30;99.90
10883;DHT22;5494;51.796;10.952;2023-03-14T04:36:29;10.30;99.90
10883;DHT22;5494;51.796;10.952;2023-03-14T04:39:02;10.30;99.90
10883;DHT22;5494;51.796;10.952;2023-03-14T04:41:31;10.30;99.90
10883;DHT22;5494;51.796;10.952;2023-03-14T04:43:59;10.30;99.90
10883;DHT22;5494;51.796;10.952;2023-03-14T04:46:28;10.30;99.90
10883;DHT22;5494;51.796;10.952;2023-03-14T04:48:57;10.20;99.90
10883;DHT22;5494;51.796;10.952;2023-03-14T04:51:25;10.30;99.90
10883;DHT22;5494;51.796;10.952;2023-03-14T04:53:54;10.30;99.90
10883;DHT22;5494;51.796;10.952;2023-03-14T04:56:23;10.30;99.90
10883;DHT22;5494;51.796;10.952;2023-03-14T04:58:52;10.30;99.90
10883;DHT22;5494;51.796;10.952;2023-03-14T05:01:20;10.20;99.90
10883;DHT22;5494;51.796;10.952;2023-03-14T05:04:03;10.20;99.90
10883;DHT22;5494;51.796;10.952;2023-03-14T05:06:53;10.30;99.90
10883;DHT22;5494;51.796;10.952;2023-03-14T05:09:28;10.40;99.90
10883;DHT22;5494;51.796;10.952;2023-03-14T05:12:18;10.30;99.90
10883;DHT22;5494;51.796;10.952;2023-03-14T05:15:19;10.30;99.90
10883;DHT22;5494;51.796;10.952;2023-03-14T05:17:59;10.40;99.90
10883;DHT22;5494;51.796;10.952;2023-03-14T05:20:50;10.40;99.90
10883;DHT22;5494;51.796;10.952;2023-03-14T05:23:41;10.40;99.90
10883;DHT22;5494;51.796;10.952;2023-03-14T05:26:16;10.30;99.90
10883;DHT22;5494;51.796;10.952;2023-03-14T05:29:01;10.40;99.90
10883;DHT22;5494;51.796;10.952;2023-03-14T05:31:35;10.40;99.90
10883;DHT22;5494;51.796;10.952;2023-03-14T05:34:23;10.40;99.90
10883;DHT22;5494;51.796;10.952;2023-03-14T05:37:22;10.40;99.90
10883;DHT22;5494;51.796;10.952;2023-03-14T05:40:03;10.50;99.90
10883;DHT22;5494;51.796;10.952;2023-03-14T05:42:39;10.50;99.90
10883;DHT22;5494;51.796;10.952;2023-03-14T05:45:17;10.50;99.90
10883;DHT22;5494;51.796;10.952;2023-03-14T05:48:01;10.50;99.90
10883;DHT22;5494;51.796;10.952;2023-03-14T05:50:39;10.60;99.90
10883;DHT22;5494;51.796;10.952;2023-03-14T05:53:31;10.60;99.90
10883;DHT22;5494;51.796;10.952;2023-03-14T05:56:32;10.70;99.90
10883;DHT22;5494;51.796;10.952;2023-03-14T05:59:03;10.60;99.90
10883;DHT22;5494;51.796;10.952;2023-03-14T06:01:54;10.60;99.90
10883;DHT22;5494;51.796;10.952;2023-03-14T06:04:25;10.50;99.90
10883;DHT22;5494;51.796;10.952;2023-03-14T06:06:57;10.60;99.90
10883;DHT22;5494;51.796;10.952;2023-03-14T06:09:27;10.50;99.90
10883;DHT22;5494;51.796;10.952;2023-03-14T06:11:58;10.50;99.90
10883;DHT22;5494;51.796;10.952;2023-03-14T06:14:30;10.40;99.90
10883;DHT22;5494;51.796;10.952;2023-03-14T06:16:58;10.40;99.90
10883;DHT22;5494;51.796;10.952;2023-03-14T06:19:29;10.30;99.90
10883;DHT22;5494;51.796;10.952;2023-03-14T06:21:57;10.40;99.90
10883;DHT22;5494;51.796;10.952;2023-03-14T06:24:27;10.40;99.90
10883;DHT22;5494;51.796;10.952;2023-03-14T06:26:56;10.50;99.90
10883;DHT22;5494;51.796;10.952;2023-03-14T06:29:24;10.50;99.90
10883;DHT22;5494;51.796;10.952;2023-03-14T06:31:52;10.70;99.90
10883;DHT22;5494;51.796;10.952;2023-03-14T06:34:20;10.70;99.90
10883;DHT22;5494;51.796;10.952;2023-03-14T06:36:48;10.80;99.90
10883;DHT22;5494;51.796;10.952;2023-03-14T06:39:16;10.80;99.90
10883;DHT22;5494;51.796;10.952;2023-03-14T06:41:49;10.90;99.90
10883;DHT22;5494;51.796;10.952;2023-03-14T06:44:18;11.00;99.90
10883;DHT22;5494;51.796;10.952;2023-03-14T06:46:46;11.10;99.90
10883;DHT22;5494;51.796;10.952;2023-03-14T06:49:15;11.20;99.90
10883;DHT22;5494;51.796;10.952;2023-03-14T06:51:43;11.30;99.90
10883;DHT22;5494;51.796;10.952;2023-03-14T06:54:11;11.40;99.90
10883;DHT22;5494;51.796;10.952;2023-03-14T06:56:40;11.60;99.90
10883;DHT22;5494;51.796;10.952;2023-03-14T06:59:10;11.90;99.90
10883;DHT22;5494;51.796;10.952;2023-03-14T07:01:39;12.30;99.90
10883;DHT22;5494;51.796;10.952;2023-03-14T07:04:10;12.60;99.90
10883;DHT22;5494;51.796;10.952;2023-03-14T07:06:42;13.10;99.90
10883;DHT22;5494;51.796;10.952;2023-03-14T07:09:13;13.70;99.90
10883;DHT22;5494;51.796;10.952;2023-03-14T07:11:47;14.00;99.90
10883;DHT22;5494;51.796;10.952;2023-03-14T07:14:18;14.30;99.90
10883;DHT22;5494;51.796;10.952;2023-03-14T07:16:48;14.50;99.90
10883;DHT22;5494;51.796;10.952;2023-03-14T07:19:17;14.90;99.90
10883;DHT22;5494;51.796;10.952;2023-03-14T07:21:45;15.10;99.90
10883;DHT22;5494;51.796;10.952;2023-03-14T07:24:16;15.10;99.90
10883;DHT22;5494;51.796;10.952;2023-03-14T07:26:43;14.90;99.90
10883;DHT22;5494;51.796;10.952;2023-03-14T07:29:11;14.30;99.90
10883;DHT22;5494;51.796;10.952;2023-03-14T07:31:41;14.60;99.90
10883;DHT22;5494;51.796;10.952;2023-03-14T07:34:10;14.80;99.90
10883;DHT22;5494;51.796;10.952;2023-03-14T07:36:42;15.20;99.90
10883;DHT22;5494;51.796;10.952;2023-03-14T07:39:10;15.40;99.90
10883;DHT22;5494;51.796;10.952;2023-03-14T07:41:56;15.70;99.90
10883;DHT22;5494;51.796;10.952;2023-03-14T07:44:53;16.20;99.90
10883;DHT22;5494;51.796;10.952;2023-03-14T07:47:22;16.40;99.90
10883;DHT22;5494;51.796;10.952;2023-03-14T07:49:50;16.40;99.90
10883;DHT22;5494;51.796;10.952;2023-03-14T07:52:18;16.70;99.90
10883;DHT22;5494;51.796;10.952;2023-03-14T07:54:46;16.50;99.90
10883;DHT22;5494;51.796;10.952;2023-03-14T07:57:13;16.40;99.90
10883;DHT22;5494;51.796;10.952;2023-03-14T07:59:42;16.00;99.90
10883;DHT22;5494;51.796;10.952;2023-03-14T08:02:10;15.60;99.90
10883;DHT22;5494;51.796;10.952;2023-03-14T08:04:41;15.40;99.90
10883;DHT22;5494;51.796;10.952;2023-03-14T08:07:09;15.10;99.90
10883;DHT22;5494;51.796;10.952;2023-03-14T08:09:37;15.00;99.90
10883;DHT22;5494;51.796;10.952;2023-03-14T08:12:06;14.80;99.90
10883;DHT22;5494;51.796;10.952;2023-03-14T08:14:34;14.70;99.90
10883;DHT22;5494;51.796;10.952;2023-03-14T08:17:02;14.60;99.90
10883;DHT22;5494;51.796;10.952;2023-03-14T08:19:31;14.50;99.90
10883;DHT22;5494;51.796;10.952;2023-03-14T08:22:00;14.40;99.90
10883;DHT22;5494;51.796;10.952;2023-03-14T08:24:29;14.30;99.90
10883;DHT22;5494;51.796;10.952;2023-03-14T08:26:58;14.30;99.90
10883;DHT22;5494;51.796;10.952;2023-03-14T08:29:26;14.20;99.90
10883;DHT22;5494;51.796;10.952;2023-03-14T08:31:54;14.00;99.90
10883;DHT22;5494;51.796;10.952;2023-03-14T08:34:23;13.90;99.90
10883;DHT22;5494;51.796;10.952;2023-03-14T08:36:51;13.90;99.90
10883;DHT22;5494;51.796;10.952;2023-03-14T08:39:20;13.90;99.90
10883;DHT22;5494;51.796;10.952;2023-03-14T08:41:49;13.90;99.90
10883;DHT22;5494;51.796;10.952;2023-03-14T08:44:17;13.90;99.90
10883;DHT22;5494;51.796;10.952;2023-03-14T08:46:46;14.00;99.90
10883;DHT22;5494;51.796;10.952;2023-03-14T08:49:15;14.00;99.90
10883;DHT22;5494;51.796;10.952;2023-03-14T08:51:42;14.20;99.90
10883;DHT22;5494;51.796;10.952;2023-03-14T08:54:10;14.00;99.90
10883;DHT22;5494;51.796;10.952;2023-03-14T08:56:40;13.90;99.90
10883;DHT22;5494;51.796;10.952;2023-03-14T08:59:08;13.80;99.90
10883;DHT22;5494;51.796;10.952;2023-03-14T09:01:37;14.00;99.90
10883;DHT22;5494;51.796;10.952;2023-03-14T09:04:05;14.40;99.90
10883;DHT22;5494;51.796;10.952;2023-03-14T09:06:33;14.80;99.90
10883;DHT22;5494;51.796;10.952;2023-03-14T09:09:02;15.20;99.90
10883;DHT22;5494;51.796;10.952;2023-03-14T09:11:30;15.70;99.90
10883;DHT22;5494;51.796;10.952;2023-03-14T09:14:00;16.00;99.90
10883;DHT22;5494;51.796;10.952;2023-03-14T09:16:28;16.30;99.90
10883;DHT22;5494;51.796;10.952;2023-03-14T09:19:01;16.60;99.90
10883;DHT22;5494;51.796;10.952;2023-03-14T09:21:30;16.70;99.90
10883;DHT22;5494;51.796;10.952;2023-03-14T09:23:58;17.00;99.90
10883;DHT22;5494;51.796;10.952;2023-03-14T09:26:26;17.30;99.90
10883;DHT22;5494;51.796;10.952;2023-03-14T09:28:54;17.30;99.90
10883;DHT22;5494;51.796;10.952;2023-03-14T09:31:25;17.40;99.90
10883;DHT22;5494;51.796;10.952;2023-03-14T09:33:55;17.50;99.90
10883;DHT22;5494;51.796;10.952;2023-03-14T09:36:23;17.50;99.90
10883;DHT22;5494;51.796;10.952;2023-03-14T09:38:51;17.30;99.90
10883;DHT22;5494;51.796;10.952;2023-03-14T09:41:23;17.30;99.90
10883;DHT22;5494;51.796;10.952;2023-03-14T09:44:01;17.40;99.90
10883;DHT22;5494;51.796;10.952;2023-03-14T09:46:35;17.10;99.90
10883;DHT22;5494;51.796;10.952;2023-03-14T09:49:10;16.70;99.90
10883;DHT22;5494;51.796;10.952;2023-03-14T09:51:42;16.70;99.90
10883;DHT22;5494;51.796;10.952;2023-03-14T09:54:24;16.70;99.90
10883;DHT22;5494;51.796;10.952;2023-03-14T09:56:58;16.50;99.90
10883;DHT22;5494;51.796;10.952;2023-03-14T09:59:27;16.50;99.90
10883;DHT22;5494;51.796;10.952;2023-03-14T10:02:00;16.20;99.90
10883;DHT22;5494;51.796;10.952;2023-03-14T10:04:30;16.00;99.90
10883;DHT22;5494;51.796;10.952;2023-03-14T10:06:59;15.80;99.90
10883;DHT22;5494;51.796;10.952;2023-03-14T10:09:30;15.70;99.90
10883;DHT22;5494;51.796;10.952;2023-03-14T10:11:58;15.70;99.90
10883;DHT22;5494;51.796;10.952;2023-03-14T10:14:32;15.70;99.90
10883;DHT22;5494;51.796;10.952;2023-03-14T10:17:07;15.60;99.90
10883;DHT22;5494;51.796;10.952;2023-03-14T10:19:37;15.50;99.90
10883;DHT22;5494;51.796;10.952;2023-03-14T10:22:18;15.30;99.90
10883;DHT22;5494;51.796;10.952;2023-03-14T10:24:51;15.00;99.90
10883;DHT22;5494;51.796;10.952;2023-03-14T10:27:28;14.90;99.90
10883;DHT22;5494;51.796;10.952;2023-03-14T10:29:58;14.90;99.90
10883;DHT22;5494;51.796;10.952;2023-03-14T10:32:33;15.00;99.90
10883;DHT22;5494;51.796;10.952;2023-03-14T10:35:17;15.10;99.90
10883;DHT22;5494;51.796;10.952;2023-03-14T10:37:53;15.30;99.90
10883;DHT22;5494;51.796;10.952;2023-03-14T10:40:27;15.40;99.90
10883;DHT22;5494;51.796;10.952;2023-03-14T10:42:58;15.60;99.90
10883;DHT22;5494;51.796;10.952;2023-03-14T10:45:36;15.40;99.90
10883;DHT22;5494;51.796;10.952;2023-03-14T10:48:19;15.30;99.90
10883;DHT22;5494;51.796;10.952;2023-03-14T10:50:55;15.30;99.90
10883;DHT22;5494;51.796;10.952;2023-03-14T10:53:25;15.20;99.90
10883;DHT22;5494;51.796;10.952;2023-03-14T10:55:55;15.00;99.90
10883;DHT22;5494;51.796;10.952;2023-03-14T10:58:26;14.60;99.90
10883;DHT22;5494;51.796;10.952;2023-03-14T11:01:06;14.30;99.90
10883;DHT22;5494;51.796;10.952;2023-03-14T11:03:49;14.10;99.90
10883;DHT22;5494;51.796;10.952;2023-03-14T11:06:27;14.10;99.90
10883;DHT22;5494;51.796;10.952;2023-03-14T11:09:12;14.10;99.90
10883;DHT22;5494;51.796;10.952;2023-03-14T11:11:47;14.20;99.90
10883;DHT22;5494;51.796;10.952;2023-03-14T11:14:25;14.30;99.90
10883;DHT22;5494;51.796;10.952;2023-03-14T11:17:01;14.40;99.90
10883;DHT22;5494;51.796;10.952;2023-03-14T11:19:51;14.40;99.90
10883;DHT22;5494;51.796;10.952;2023-03-14T11:22:39;14.60;99.90
10883;DHT22;5494;51.796;10.952;2023-03-14T11:25:18;14.70;99.90
10883;DHT22;5494;51.796;10.952;2023-03-14T11:27:57;14.70;99.90
10883;DHT22;5494;51.796;10.952;2023-03-14T11:30:36;14.70;99.90
10883;DHT22;5494;51.796;10.952;2023-03-14T11:33:15;14.70;99.90
10883;DHT22;5494;51.796;10.952;2023-03-14T11:35:51;14.60;99.90
10883;DHT22;5494;51.796;10.952;2023-03-14T11:38:31;14.70;99.90
10883;DHT22;5494;51.796;10.952;2023-03-14T11:41:10;14.60;99.90
10883;DHT22;5494;51.796;10.952;2023-03-14T11:43:47;14.60;99.90
10883;DHT22;5494;51.796;10.952;2023-03-14T11:46:24;14.60;99.90
10883;DHT22;5494;51.796;10.952;2023-03-14T11:49:01;14.70;99.90
10883;DHT22;5494;51.796;10.952;2023-03-14T11:51:39;14.60;99.90
10883;DHT22;5494;51.796;10.952;2023-03-14T11:54:16;14.70;99.90
10883;DHT22;5494;51.796;10.952;2023-03-14T11:56:58;14.70;99.90
10883;DHT22;5494;51.796;10.952;2023-03-14T11:59:41;14.70;99.90
10883;DHT22;5494;51.796;10.952;2023-03-14T12:02:21;14.80;99.90
10883;DHT22;5494;51.796;10.952;2023-03-14T12:05:20;14.80;99.90
10883;DHT22;5494;51.796;10.952;2023-03-14T12:08:24;14.90;99.90
10883;DHT22;5494;51.796;10.952;2023-03-14T12:11:11;14.80;99.90
10883;DHT22;5494;51.796;10.952;2023-03-14T12:13:47;14.70;99.90
10883;DHT22;5494;51.796;10.952;2023-03-14T12:16:33;14.50;99.90
10883;DHT22;5494;51.796;10.952;2023-03-14T12:22:27;14.20;99.90
10883;DHT22;5494;51.796;10.952;2023-03-14T12:25:02;14.40;99.90
10883;DHT22;5494;51.796;10.952;2023-03-14T12:28:04;14.60;99.90
10883;DHT22;5494;51.796;10.952;2023-03-14T12:30:43;14.80;99.90
10883;DHT22;5494;51.796;10.952;2023-03-14T12:36:21;15.00;99.90
10883;DHT22;5494;51.796;10.952;2023-03-14T12:39:21;15.30;99.90
10883;DHT22;5494;51.796;10.952;2023-03-14T12:42:05;15.30;99.90
10883;DHT22;5494;51.796;10.952;2023-03-14T12:44:43;15.40;99.90
10883;DHT22;5494;51.796;10.952;2023-03-14T12:47:46;15.60;99.90
10883;DHT22;5494;51.796;10.952;2023-03-14T12:50:38;15.70;99.90
10883;DHT22;5494;51.796;10.952;2023-03-14T12:53:33;15.80;99.90
10883;DHT22;5494;51.796;10.952;2023-03-14T12:56:24;15.70;99.90
10883;DHT22;5494;51.796;10.952;2023-03-14T12:59:10;15.70;99.90
10883;DHT22;5494;51.796;10.952;2023-03-14T13:01:54;15.80;99.90
10883;DHT22;5494;51.796;10.952;2023-03-14T13:04:29;15.70;99.90
10883;DHT22;5494;51.796;10.952;2023-03-14T13:07:11;15.70;99.90
10883;DHT22;5494;51.796;10.952;2023-03-14T13:10:14;15.50;99.90
10883;DHT22;5494;51.796;10.952;2023-03-14T13:12:49;15.10;99.90
10883;DHT22;5494;51.796;10.952;2023-03-14T13:15:24;14.80;99.90
10883;DHT22;5494;51.796;10.952;2023-03-14T13:17:59;14.70;99.90
10883;DHT22;5494;51.796;10.952;2023-03-14T13:20:32;14.00;99.90
10883;DHT22;5494;51.796;10.952;2023-03-14T13:23:03;12.50;99.90
10883;DHT22;5494;51.796;10.952;2023-03-14T13:25:33;11.10;99.90
10883;DHT22;5494;51.796;10.952;2023-03-14T13:28:05;10.00;99.90
10883;DHT22;5494;51.796;10.952;2023-03-14T13:30:40;9.10;99.90
10883;DHT22;5494;51.796;10.952;2023-03-14T13:33:14;8.60;99.90
10883;DHT22;5494;51.796;10.952;2023-03-14T13:35:45;8.20;99.90
10883;DHT22;5494;51.796;10.952;2023-03-14T13:38:19;8.00;99.90
10883;DHT22;5494;51.796;10.952;2023-03-14T13:40:50;7.80;99.90
10883;DHT22;5494;51.796;10.952;2023-03-14T13:43:28;7.60;99.90
10883;DHT22;5494;51.796;10.952;2023-03-14T13:46:04;7.40;99.90
10883;DHT22;5494;51.796;10.952;2023-03-14T13:48:43;7.30;99.90
10883;DHT22;5494;51.796;10.952;2023-03-14T13:51:16;7.20;99.90
10883;DHT22;5494;51.796;10.952;2023-03-14T13:53:48;7.00;99.90
10883;DHT22;5494;51.796;10.952;2023-03-14T13:56:19;7.00;99.90
10883;DHT22;5494;51.796;10.952;2023-03-14T13:58:50;6.40;99.90
10883;DHT22;5494;51.796;10.952;2023-03-14T14:01:22;6.80;99.90
10883;DHT22;5494;51.796;10.952;2023-03-14T14:03:55;6.70;99.90
10883;DHT22;5494;51.796;10.952;2023-03-14T14:06:30;6.70;99.90
10883;DHT22;5494;51.796;10.952;2023-03-14T14:09:09;6.60;99.90
10883;DHT22;5494;51.796;10.952;2023-03-14T14:11:42;6.50;99.90
10883;DHT22;5494;51.796;10.952;2023-03-14T14:14:37;6.50;99.90
10883;DHT22;5494;51.796;10.952;2023-03-14T14:17:12;6.30;99.90
10883;DHT22;5494;51.796;10.952;2023-03-14T14:19:44;6.00;99.90
10883;DHT22;5494;51.796;10.952;2023-03-14T14:22:14;5.80;99.90
10883;DHT22;5494;51.796;10.952;2023-03-14T14:24:44;7.30;99.90
10883;DHT22;5494;51.796;10.952;2023-03-14T14:27:14;5.60;99.90
10883;DHT22;5494;51.796;10.952;2023-03-14T14:29:56;5.50;99.90
10883;DHT22;5494;51.796;10.952;2023-03-14T14:32:34;5.40;99.90
10883;DHT22;5494;51.796;10.952;2023-03-14T14:35:04;5.30;99.90
10883;DHT22;5494;51.796;10.952;2023-03-14T14:37:40;5.20;99.90
10883;DHT22;5494;51.796;10.952;2023-03-14T14:40:17;5.20;99.90
10883;DHT22;5494;51.796;10.952;2023-03-14T14:42:48;5.10;99.90
10883;DHT22;5494;51.796;10.952;2023-03-14T14:45:19;5.10;99.90
10883;DHT22;5494;51.796;10.952;2023-03-14T14:47:51;5.10;99.90
10883;DHT22;5494;51.796;10.952;2023-03-14T14:50:28;5.00;99.90
10883;DHT22;5494;51.796;10.952;2023-03-14T14:52:58;4.90;99.90
10883;DHT22;5494;51.796;10.952;2023-03-14T14:55:31;4.80;99.90
10883;DHT22;5494;51.796;10.952;2023-03-14T14:58:12;4.80;99.90
10883;DHT22;5494;51.796;10.952;2023-03-14T15:00:54;4.80;99.90
10883;DHT22;5494;51.796;10.952;2023-03-14T15:03:28;4.90;99.90
10883;DHT22;5494;51.796;10.952;2023-03-14T15:05:58;4.80;99.90
10883;DHT22;5494;51.796;10.952;2023-03-14T15:08:27;4.80;99.90
10883;DHT22;5494;51.796;10.952;2023-03-14T15:10:56;4.70;99.90
10883;DHT22;5494;51.796;10.952;2023-03-14T15:13:25;4.70;99.90
10883;DHT22;5494;51.796;10.952;2023-03-14T15:15:53;4.70;99.90
10883;DHT22;5494;51.796;10.952;2023-03-14T15:18:24;4.80;99.90
10883;DHT22;5494;51.796;10.952;2023-03-14T15:20:57;4.70;99.90
10883;DHT22;5494;51.796;10.952;2023-03-14T15:23:26;4.70;99.90
10883;DHT22;5494;51.796;10.952;2023-03-14T15:25:54;4.70;99.90
10883;DHT22;5494;51.796;10.952;2023-03-14T15:28:24;4.70;99.90
10883;DHT22;5494;51.796;10.952;2023-03-14T15:30:54;4.70;99.90
10883;DHT22;5494;51.796;10.952;2023-03-14T15:33:24;4.70;99.90
10883;DHT22;5494;51.796;10.952;2023-03-14T15:35:53;4.70;99.90
10883;DHT22;5494;51.796;10.952;2023-03-14T15:38:24;4.80;99.90
10883;DHT22;5494;51.796;10.952;2023-03-14T15:40:53;4.80;99.90
10883;DHT22;5494;51.796;10.952;2023-03-14T15:43:21;4.90;99.90
10883;DHT22;5494;51.796;10.952;2023-03-14T15:45:49;4.90;99.90
10883;DHT22;5494;51.796;10.952;2023-03-14T15:48:19;4.90;99.90
10883;DHT22;5494;51.796;10.952;2023-03-14T15:50:48;5.00;99.90
10883;DHT22;5494;51.796;10.952;2023-03-14T15:53:16;5.00;99.90
10883;DHT22;5494;51.796;10.952;2023-03-14T15:55:46;5.00;99.90
10883;DHT22;5494;51.796;10.952;2023-03-14T15:58:16;4.90;99.90
10883;DHT22;5494;51.796;10.952;2023-03-14T16:00:49;4.60;99.90
10883;DHT22;5494;51.796;10.952;2023-03-14T16:03:18;4.20;99.90
10883;DHT22;5494;51.796;10.952;2023-03-14T16:05:46;4.00;99.90
10883;DHT22;5494;51.796;10.952;2023-03-14T16:08:14;3.90;99.90
10883;DHT22;5494;51.796;10.952;2023-03-14T16:10:43;4.00;99.90
10883;DHT22;5494;51.796;10.952;2023-03-14T16:13:13;4.00;99.90
10883;DHT22;5494;51.796;10.952;2023-03-14T16:15:41;4.00;99.90
10883;DHT22;5494;51.796;10.952;2023-03-14T16:18:09;4.00;99.90
10883;DHT22;5494;51.796;10.952;2023-03-14T16:20:58;4.10;99.90